createdAt,value
2018-01-27T00:00:47.065Z,0
2018-01-27T00:01:56.873Z,0
2018-01-27T00:03:06.948Z,0
2018-01-27T00:04:17.005Z,0
2018-01-27T00:05:27.070Z,0
2018-01-27T00:06:36.882Z,0
2018-01-27T00:07:46.948Z,0
2018-01-27T00:08:57.024Z,0
2018-01-27T00:10:07.106Z,0
2018-01-27T00:11:16.903Z,0
2018-01-27T00:12:26.971Z,0
2018-01-27T00:13:37.064Z,0
2018-01-27T00:14:47.141Z,0
2018-01-27T00:15:57.435Z,0
2018-01-27T00:17:10.247Z,0
2018-01-27T00:18:20.390Z,0
2018-01-27T00:19:30.442Z,0
2018-01-27T00:20:40.557Z,0
2018-01-27T00:21:50.342Z,0
2018-01-27T00:23:00.408Z,0
2018-01-27T00:24:10.202Z,0
2018-01-27T00:25:20.248Z,0
2018-01-27T00:26:30.030Z,0
2018-01-27T00:27:40.084Z,0
2018-01-27T00:28:50.131Z,0
2018-01-27T00:29:59.939Z,0
2018-01-27T00:31:09.988Z,0
2018-01-27T00:32:20.054Z,0
2018-01-27T00:33:30.122Z,0
2018-01-27T00:34:39.923Z,0
2018-01-27T00:35:49.970Z,0
2018-01-27T00:37:00.027Z,0
2018-01-27T00:38:10.080Z,0
2018-01-27T00:39:19.880Z,0
2018-01-27T00:40:29.939Z,0
2018-01-27T00:41:40.000Z,0
2018-01-27T00:42:50.029Z,0
2018-01-27T00:44:00.140Z,0
2018-01-27T00:45:10.227Z,0
2018-01-27T00:46:20.281Z,0
2018-01-27T00:47:30.349Z,0
2018-01-27T00:48:40.405Z,0
2018-01-27T00:49:50.497Z,0
2018-01-27T00:51:00.285Z,0
2018-01-27T00:52:10.356Z,0
2018-01-27T00:53:20.420Z,0
2018-01-27T00:54:30.456Z,0
2018-01-27T00:55:40.540Z,0
2018-01-27T00:56:50.326Z,0
2018-01-27T00:58:00.120Z,0
2018-01-27T00:59:10.171Z,0
2018-01-27T01:00:20.219Z,0
2018-01-27T01:01:30.260Z,0
2018-01-27T01:02:41.630Z,0
2018-01-27T01:03:51.673Z,0
2018-01-27T01:05:01.469Z,0
2018-01-27T01:06:11.264Z,0
2018-01-27T01:07:21.373Z,0
2018-01-27T01:08:32.771Z,0
2018-01-27T01:09:42.821Z,0
2018-01-27T01:10:52.899Z,0
2018-01-27T01:12:03.492Z,0
2018-01-27T01:13:13.938Z,0
2018-01-27T01:14:23.714Z,0
2018-01-27T01:15:33.997Z,0
2018-01-27T01:16:43.543Z,0
2018-01-27T01:17:53.669Z,0
2018-01-27T01:19:03.814Z,0
2018-01-27T01:20:13.601Z,0
2018-01-27T01:21:23.663Z,0
2018-01-27T01:22:33.467Z,0
2018-01-27T01:23:43.561Z,0
2018-01-27T01:24:53.679Z,0
2018-01-27T01:26:03.465Z,0
2018-01-27T01:27:13.499Z,0
2018-01-27T01:28:23.550Z,0
2018-01-27T01:29:33.631Z,0
2018-01-27T01:30:43.423Z,0
2018-01-27T01:31:53.213Z,0
2018-01-27T01:33:03.253Z,0
2018-01-27T01:34:13.304Z,0
2018-01-27T01:35:23.341Z,0
2018-01-27T01:36:33.380Z,0
2018-01-27T01:37:43.435Z,0
2018-01-27T01:38:53.470Z,0
2018-01-27T01:40:03.527Z,0
2018-01-27T01:41:13.313Z,0
2018-01-27T01:42:23.426Z,0
2018-01-27T01:43:33.228Z,0
2018-01-27T01:44:43.300Z,0
2018-01-27T01:45:53.361Z,0
2018-01-27T01:47:03.158Z,0
2018-01-27T01:48:13.209Z,0
2018-01-27T01:49:23.252Z,0
2018-01-27T01:50:33.047Z,0
2018-01-27T01:51:42.821Z,0
2018-01-27T01:52:52.623Z,0
2018-01-27T01:54:02.408Z,0
2018-01-27T01:55:12.454Z,0
2018-01-27T01:56:22.508Z,0
2018-01-27T01:57:32.664Z,0
2018-01-27T01:58:42.705Z,0
2018-01-27T01:59:52.746Z,0
2018-01-27T02:01:02.815Z,0
2018-01-27T02:02:12.589Z,0
2018-01-27T02:03:22.637Z,0
2018-01-27T02:04:32.684Z,0
2018-01-27T02:05:42.466Z,0
2018-01-27T02:06:52.513Z,0
2018-01-27T02:08:02.569Z,0
2018-01-27T02:09:12.631Z,0
2018-01-27T02:10:22.673Z,0
2018-01-27T02:11:32.454Z,0
2018-01-27T02:12:42.230Z,0
2018-01-27T02:13:52.294Z,0
2018-01-27T02:15:02.100Z,0
2018-01-27T02:16:11.881Z,0
2018-01-27T02:17:21.653Z,0
2018-01-27T02:18:31.704Z,0
2018-01-27T02:19:41.753Z,0
2018-01-27T02:20:51.821Z,0
2018-01-27T02:22:01.359Z,0
2018-01-27T02:23:11.396Z,0
2018-01-27T02:24:22.708Z,0
2018-01-27T02:25:33.918Z,0
2018-01-27T02:26:43.957Z,0
2018-01-27T02:27:54.026Z,0
2018-01-27T02:29:04.074Z,0
2018-01-27T02:30:14.109Z,0
2018-01-27T02:31:24.185Z,0
2018-01-27T02:32:34.250Z,0
2018-01-27T02:33:44.037Z,0
2018-01-27T02:34:54.093Z,0
2018-01-27T02:36:04.142Z,0
2018-01-27T02:37:14.189Z,0
2018-01-27T02:38:23.969Z,0
2018-01-27T02:39:34.022Z,0
2018-01-27T02:40:43.836Z,0
2018-01-27T02:41:54.889Z,0
2018-01-27T02:43:04.472Z,0
2018-01-27T02:44:14.258Z,0
2018-01-27T02:45:24.300Z,0
2018-01-27T02:46:34.352Z,0
2018-01-27T02:47:44.397Z,0
2018-01-27T02:48:54.464Z,0
2018-01-27T02:50:04.312Z,0
2018-01-27T02:51:14.343Z,0
2018-01-27T02:52:24.387Z,0
2018-01-27T02:53:34.434Z,0
2018-01-27T02:54:44.240Z,0
2018-01-27T02:55:54.279Z,0
2018-01-27T02:57:04.068Z,0
2018-01-27T02:58:14.123Z,0
2018-01-27T02:59:24.159Z,0
2018-01-27T03:00:33.990Z,0
2018-01-27T03:01:43.780Z,0
2018-01-27T03:02:53.824Z,0
2018-01-27T03:35:04.529Z,0
2018-01-27T03:36:14.565Z,0
2018-01-27T03:37:24.328Z,0
2018-01-27T03:38:34.098Z,0
2018-01-27T03:39:44.127Z,0
2018-01-27T03:40:54.155Z,0
2018-01-27T03:42:04.198Z,0
2018-01-27T03:43:13.980Z,0
2018-01-27T03:44:24.013Z,0
2018-01-27T03:45:33.809Z,0
2018-01-27T03:46:43.846Z,0
2018-01-27T03:47:54.980Z,0
2018-01-27T03:49:05.031Z,0
2018-01-27T03:50:15.068Z,0
2018-01-27T03:51:25.165Z,0
2018-01-27T03:52:34.990Z,0
2018-01-27T03:53:45.032Z,0
2018-01-27T03:54:55.084Z,0
2018-01-27T03:56:04.867Z,0
2018-01-27T03:57:14.651Z,0
2018-01-27T03:58:24.694Z,0
2018-01-27T03:59:34.741Z,0
2018-01-27T04:00:44.783Z,0
2018-01-27T04:01:54.835Z,0
2018-01-27T04:03:04.878Z,0
2018-01-27T04:04:14.660Z,0
2018-01-27T04:05:24.695Z,0
2018-01-27T04:06:34.483Z,0
2018-01-27T04:07:44.262Z,0
2018-01-27T04:08:54.312Z,0
2018-01-27T04:10:04.100Z,0
2018-01-27T04:11:13.882Z,0
2018-01-27T04:12:23.684Z,0
2018-01-27T04:13:33.724Z,0
2018-01-27T04:14:43.498Z,0
2018-01-27T04:15:53.540Z,0
2018-01-27T04:17:03.582Z,0
2018-01-27T04:18:13.364Z,0
2018-01-27T04:19:23.420Z,0
2018-01-27T04:20:33.194Z,0
2018-01-27T04:21:43.291Z,0
2018-01-27T04:22:53.350Z,0
2018-01-27T04:24:03.394Z,0
2018-01-27T04:25:13.428Z,0
2018-01-27T04:26:23.475Z,0
2018-01-27T04:27:33.314Z,0
2018-01-27T04:28:43.393Z,0
2018-01-27T04:29:53.486Z,0
2018-01-27T04:31:03.531Z,0
2018-01-27T04:32:13.321Z,0
2018-01-27T04:33:23.367Z,0
2018-01-27T04:34:33.165Z,0
2018-01-27T04:35:43.205Z,0
2018-01-27T04:36:53.247Z,0
2018-01-27T04:38:02.774Z,0
2018-01-27T04:39:12.595Z,0
2018-01-27T04:40:22.393Z,0
2018-01-27T04:41:32.195Z,0
2018-01-27T04:42:42.319Z,0
2018-01-27T04:43:52.369Z,0
2018-01-27T04:45:02.436Z,0
2018-01-27T04:46:12.481Z,0
2018-01-27T04:47:22.522Z,0
2018-01-27T04:48:32.295Z,0
2018-01-27T04:49:42.352Z,0
2018-01-27T04:50:52.137Z,0
2018-01-27T04:52:02.175Z,0
2018-01-27T04:53:12.212Z,0
2018-01-27T04:54:22.255Z,0
2018-01-27T04:55:32.048Z,0
2018-01-27T04:56:41.829Z,0
2018-01-27T04:57:51.880Z,0
2018-01-27T04:59:01.667Z,0
2018-01-27T05:00:11.713Z,0
2018-01-27T05:01:21.758Z,0
2018-01-27T05:02:31.938Z,0
2018-01-27T05:03:41.975Z,0
2018-01-27T05:04:52.026Z,0
2018-01-27T05:06:02.061Z,0
2018-01-27T05:07:13.208Z,0
2018-01-27T05:08:23.014Z,0
2018-01-27T05:09:33.056Z,0
2018-01-27T05:10:43.088Z,0
2018-01-27T05:11:53.128Z,0
2018-01-27T05:13:02.710Z,0
2018-01-27T05:14:12.658Z,0
2018-01-27T05:15:22.695Z,0
2018-01-27T05:16:32.735Z,0
2018-01-27T05:17:42.572Z,0
2018-01-27T05:18:52.624Z,0
2018-01-27T05:20:02.676Z,0
2018-01-27T05:21:12.724Z,0
2018-01-27T05:22:22.769Z,0
2018-01-27T05:23:32.803Z,0
2018-01-27T05:24:42.833Z,0
2018-01-27T05:25:52.630Z,0
2018-01-27T05:27:02.683Z,0
2018-01-27T05:28:12.738Z,0
2018-01-27T05:29:22.801Z,0
2018-01-27T05:30:32.653Z,0
2018-01-27T05:31:42.693Z,0
2018-01-27T05:32:52.731Z,0
2018-01-27T05:34:02.517Z,0
2018-01-27T05:35:12.544Z,0
2018-01-27T05:36:22.327Z,0
2018-01-27T05:37:32.432Z,0
2018-01-27T05:38:41.968Z,0
2018-01-27T05:39:51.774Z,0
2018-01-27T05:41:01.563Z,0
2018-01-27T05:42:11.615Z,0
2018-01-27T05:43:21.651Z,0
2018-01-27T05:44:31.707Z,0
2018-01-27T05:45:41.753Z,0
2018-01-27T05:46:51.802Z,0
2018-01-27T05:48:01.848Z,0
2018-01-27T05:49:11.960Z,0
2018-01-27T05:50:22.019Z,0
2018-01-27T05:51:32.059Z,0
2018-01-27T05:52:42.106Z,0
2018-01-27T05:53:52.163Z,0
2018-01-27T05:55:02.205Z,0
2018-01-27T05:56:12.250Z,0
2018-01-27T05:57:22.052Z,0
2018-01-27T05:58:31.845Z,0
2018-01-27T05:59:41.894Z,0
2018-01-27T06:00:51.951Z,0
2018-01-27T06:02:01.989Z,0
2018-01-27T06:03:12.041Z,0
2018-01-27T06:04:21.817Z,0
2018-01-27T06:05:31.879Z,0
2018-01-27T06:06:41.926Z,0
2018-01-27T06:07:51.973Z,0
2018-01-27T06:09:01.754Z,0
2018-01-27T06:10:11.608Z,0
2018-01-27T06:11:21.387Z,0
2018-01-27T06:12:31.437Z,0
2018-01-27T06:13:41.482Z,0
2018-01-27T06:14:51.553Z,0
2018-01-27T06:16:01.608Z,0
2018-01-27T06:17:12.616Z,0
2018-01-27T06:18:22.448Z,0
2018-01-27T06:19:32.490Z,0
2018-01-27T06:20:42.543Z,0
2018-01-27T06:21:52.584Z,0
2018-01-27T06:23:02.357Z,0
2018-01-27T06:24:12.462Z,0
2018-01-27T06:25:22.509Z,0
2018-01-27T06:26:32.032Z,0
2018-01-27T06:27:42.059Z,0
2018-01-27T06:28:52.161Z,0
2018-01-27T06:30:02.215Z,0
2018-01-27T06:31:12.253Z,0
2018-01-27T06:32:22.284Z,0
2018-01-27T06:33:32.076Z,0
2018-01-27T06:34:42.158Z,0
2018-01-27T06:35:52.213Z,0
2018-01-27T06:37:01.727Z,0
2018-01-27T06:38:11.794Z,0
2018-01-27T06:39:21.836Z,0
2018-01-27T06:40:31.635Z,0
2018-01-27T06:41:41.153Z,0
2018-01-27T06:42:51.195Z,0
2018-01-27T06:44:01.251Z,0
2018-01-27T06:45:11.322Z,0
2018-01-27T06:46:21.381Z,0
2018-01-27T06:47:31.537Z,0
2018-01-27T06:48:41.599Z,0
2018-01-27T06:49:51.651Z,0
2018-01-27T06:51:01.183Z,0
2018-01-27T06:52:10.721Z,0
2018-01-27T06:53:20.787Z,0
2018-01-27T06:54:30.845Z,0
2018-01-27T06:55:40.884Z,0
2018-01-27T06:56:51.527Z,0
2018-01-27T06:58:01.320Z,0
2018-01-27T06:59:11.363Z,0
2018-01-27T07:00:21.152Z,0
2018-01-27T07:01:30.931Z,5
2018-01-27T07:02:40.965Z,5
2018-01-27T07:03:50.997Z,5
2018-01-27T07:05:01.082Z,5
2018-01-27T07:06:10.616Z,5
2018-01-27T07:07:20.413Z,5
2018-01-27T07:08:30.184Z,5
2018-01-27T07:09:39.971Z,5
2018-01-27T07:10:49.807Z,5
2018-01-27T07:11:59.838Z,5
2018-01-27T07:13:09.625Z,5
2018-01-27T07:14:19.427Z,5
2018-01-27T07:15:29.210Z,5
2018-01-27T07:16:39.255Z,5
2018-01-27T07:17:49.311Z,5
2018-01-27T07:18:59.349Z,5
2018-01-27T07:20:09.411Z,5
2018-01-27T07:21:19.200Z,5
2018-01-27T07:22:29.290Z,5
2018-01-27T07:23:39.108Z,10
2018-01-27T07:24:48.894Z,10
2018-01-27T07:25:58.438Z,5
2018-01-27T07:27:08.286Z,5
2018-01-27T07:28:18.131Z,10
2018-01-27T07:29:27.911Z,10
2018-01-27T07:30:37.699Z,10
2018-01-27T07:31:47.479Z,10
2018-01-27T07:32:57.526Z,10
2018-01-27T07:34:07.563Z,10
2018-01-27T07:35:17.359Z,10
2018-01-27T07:36:26.928Z,10
2018-01-27T07:37:36.718Z,10
2018-01-27T07:38:46.739Z,10
2018-01-27T07:39:56.529Z,15
2018-01-27T07:41:06.058Z,15
2018-01-27T07:42:16.103Z,10
2018-01-27T07:43:25.908Z,10
2018-01-27T07:44:35.944Z,15
2018-01-27T07:45:46.045Z,15
2018-01-27T07:46:55.570Z,15
2018-01-27T07:48:05.626Z,15
2018-01-27T07:49:15.663Z,15
2018-01-27T07:50:25.713Z,20
2018-01-27T07:51:35.745Z,20
2018-01-27T07:52:45.550Z,20
2018-01-27T07:53:55.358Z,20
2018-01-27T07:55:05.398Z,15
2018-01-27T07:56:15.248Z,15
2018-01-27T07:57:25.297Z,20
2018-01-27T07:58:35.363Z,20
2018-01-27T07:59:45.415Z,20
2018-01-27T08:00:55.221Z,15
2018-01-27T08:02:05.285Z,15
2018-01-27T08:03:15.337Z,15
2018-01-27T08:04:25.132Z,20
2018-01-27T08:05:34.930Z,20
2018-01-27T08:06:44.981Z,20
2018-01-27T08:07:55.036Z,15
2018-01-27T08:09:04.812Z,15
2018-01-27T08:10:15.404Z,20
2018-01-27T08:11:24.923Z,20
2018-01-27T08:12:34.973Z,20
2018-01-27T08:13:45.021Z,20
2018-01-27T08:14:55.069Z,20
2018-01-27T08:16:05.669Z,15
2018-01-27T08:17:15.715Z,15
2018-01-27T08:18:25.248Z,20
2018-01-27T08:19:35.298Z,20
2018-01-27T08:20:45.357Z,20
2018-01-27T08:21:55.426Z,20
2018-01-27T08:23:05.494Z,20
2018-01-27T08:24:15.311Z,20
2018-01-27T08:25:25.376Z,25
2018-01-27T08:26:35.418Z,25
2018-01-27T08:27:45.216Z,25
2018-01-27T08:28:55.260Z,25
2018-01-27T08:30:05.073Z,25
2018-01-27T08:31:15.178Z,20
2018-01-27T08:32:25.241Z,20
2018-01-27T08:33:35.018Z,20
2018-01-27T08:34:44.820Z,20
2018-01-27T08:35:54.614Z,20
2018-01-27T08:37:04.707Z,20
2018-01-27T08:38:14.747Z,20
2018-01-27T08:39:24.791Z,20
2018-01-27T08:40:34.847Z,25
2018-01-27T08:41:44.911Z,25
2018-01-27T08:42:54.736Z,25
2018-01-27T08:44:04.771Z,30
2018-01-27T08:45:14.605Z,30
2018-01-27T08:46:24.782Z,30
2018-01-27T08:47:34.559Z,30
2018-01-27T08:48:44.608Z,35
2018-01-27T08:49:54.946Z,35
2018-01-27T08:51:05.033Z,30
2018-01-27T08:52:15.076Z,30
2018-01-27T08:53:24.871Z,35
2018-01-27T08:54:34.933Z,35
2018-01-27T08:55:44.980Z,35
2018-01-27T08:56:55.087Z,35
2018-01-27T08:58:05.136Z,40
2018-01-27T08:59:15.199Z,40
2018-01-27T09:00:25.314Z,40
2018-01-27T09:01:35.387Z,40
2018-01-27T09:02:45.450Z,40
2018-01-27T09:03:55.236Z,40
2018-01-27T09:05:04.771Z,45
2018-01-27T09:06:14.570Z,40
2018-01-27T09:07:24.617Z,40
2018-01-27T09:08:34.684Z,45
2018-01-27T09:09:44.733Z,45
2018-01-27T09:10:54.763Z,50
2018-01-27T09:12:04.822Z,45
2018-01-27T09:13:14.885Z,45
2018-01-27T09:14:24.957Z,45
2018-01-27T09:15:34.742Z,45
2018-01-27T09:16:44.268Z,45
2018-01-27T09:17:54.322Z,45
2018-01-27T09:19:04.377Z,45
2018-01-27T09:20:14.187Z,45
2018-01-27T09:21:24.239Z,45
2018-01-27T09:22:34.350Z,50
2018-01-27T09:23:44.389Z,50
2018-01-27T09:24:54.188Z,55
2018-01-27T09:26:04.245Z,60
2018-01-27T09:27:14.327Z,65
2018-01-27T09:28:24.391Z,65
2018-01-27T09:29:34.467Z,70
2018-01-27T09:30:44.525Z,75
2018-01-27T09:31:54.386Z,75
2018-01-27T09:33:04.476Z,75
2018-01-27T09:34:14.269Z,80
2018-01-27T09:35:24.314Z,80
2018-01-27T09:36:34.098Z,80
2018-01-27T09:37:44.173Z,75
2018-01-27T09:38:54.235Z,80
2018-01-27T09:40:04.286Z,75
2018-01-27T09:41:14.340Z,70
2018-01-27T09:42:24.416Z,70
2018-01-27T09:43:34.475Z,65
2018-01-27T09:44:44.533Z,70
2018-01-27T09:45:54.610Z,70
2018-01-27T09:47:04.654Z,65
2018-01-27T09:48:14.715Z,65
2018-01-27T09:49:24.521Z,60
2018-01-27T09:50:34.366Z,65
2018-01-27T09:51:45.438Z,65
2018-01-27T09:52:55.519Z,65
2018-01-27T09:54:05.561Z,70
2018-01-27T09:55:15.604Z,70
2018-01-27T09:56:25.721Z,75
2018-01-27T09:57:37.131Z,75
2018-01-27T09:58:47.222Z,70
2018-01-27T09:59:57.007Z,70
2018-01-27T10:01:07.048Z,75
2018-01-27T10:02:17.099Z,75
2018-01-27T10:03:27.223Z,75
2018-01-27T10:04:37.010Z,75
2018-01-27T10:05:47.097Z,70
2018-01-27T10:06:57.162Z,70
2018-01-27T10:13:53.891Z,70
2018-01-27T10:15:04.097Z,70
2018-01-27T10:16:13.641Z,70
2018-01-27T10:17:23.841Z,75
2018-01-27T10:18:33.897Z,75
2018-01-27T10:19:43.946Z,70
2018-01-27T10:20:54.026Z,70
2018-01-27T10:22:04.987Z,75
2018-01-27T10:23:15.034Z,75
2018-01-27T10:24:25.074Z,75
2018-01-27T10:25:35.132Z,75
2018-01-27T10:26:45.189Z,75
2018-01-27T10:27:55.257Z,75
2018-01-27T10:29:05.432Z,80
2018-01-27T10:30:15.503Z,85
2018-01-27T10:31:25.303Z,80
2018-01-27T10:32:35.377Z,80
2018-01-27T10:33:45.430Z,80
2018-01-27T10:34:55.543Z,80
2018-01-27T10:36:05.332Z,85
2018-01-27T10:37:15.492Z,90
2018-01-27T10:38:25.562Z,90
2018-01-27T10:39:35.908Z,90
2018-01-27T10:40:45.184Z,95
2018-01-27T10:41:55.251Z,95
2018-01-27T10:43:05.301Z,95
2018-01-27T10:44:15.365Z,95
2018-01-27T10:45:26.172Z,85
2018-01-27T10:46:36.968Z,80
2018-01-27T10:47:47.035Z,80
2018-01-27T10:48:57.137Z,80
2018-01-27T10:50:08.693Z,80
2018-01-27T10:51:18.750Z,80
2018-01-27T10:52:28.583Z,80
2018-01-27T10:53:38.390Z,80
2018-01-27T10:54:48.457Z,80
2018-01-27T10:55:58.495Z,80
2018-01-27T10:57:08.299Z,80
2018-01-27T10:58:18.382Z,80
2018-01-27T10:59:28.186Z,80
2018-01-27T11:00:38.245Z,80
2018-01-27T11:01:48.048Z,80
2018-01-27T11:02:58.094Z,80
2018-01-27T11:04:07.901Z,80
2018-01-27T11:05:17.990Z,80
2018-01-27T11:06:27.881Z,80
2018-01-27T11:07:37.936Z,80
2018-01-27T11:08:48.017Z,80
2018-01-27T11:09:57.813Z,85
2018-01-27T11:11:07.877Z,85
2018-01-27T11:12:17.966Z,85
2018-01-27T11:13:29.083Z,80
2018-01-27T11:14:39.445Z,80
2018-01-27T11:15:49.506Z,85
2018-01-27T11:16:59.553Z,90
2018-01-27T11:18:09.428Z,90
2018-01-27T11:19:19.512Z,95
2018-01-27T11:20:29.583Z,100
2018-01-27T11:21:39.406Z,95
2018-01-27T11:22:49.482Z,95
2018-01-27T11:23:59.637Z,90
2018-01-27T11:25:09.711Z,90
2018-01-27T11:26:19.832Z,90
2018-01-27T11:27:30.009Z,95
2018-01-27T11:28:40.130Z,95
2018-01-27T11:29:50.014Z,95
2018-01-27T11:31:00.083Z,95
2018-01-27T11:32:10.193Z,90
2018-01-27T11:33:20.278Z,90
2018-01-27T11:34:30.348Z,95
2018-01-27T11:35:40.409Z,95
2018-01-27T11:36:50.198Z,80
2018-01-27T11:37:59.984Z,80
2018-01-27T11:39:10.064Z,90
2018-01-27T11:40:20.204Z,85
2018-01-27T11:41:30.261Z,85
2018-01-27T11:42:40.123Z,90
2018-01-27T11:43:51.282Z,95
2018-01-27T11:45:01.346Z,85
2018-01-27T11:46:11.153Z,80
2018-01-27T11:47:21.217Z,80
2018-01-27T11:48:31.284Z,80
2018-01-27T11:49:41.083Z,80
2018-01-27T11:50:51.283Z,85
2018-01-27T11:52:03.459Z,85
2018-01-27T11:53:13.535Z,85
2018-01-27T11:54:23.609Z,85
2018-01-27T11:55:33.697Z,85
2018-01-27T11:56:43.750Z,85
2018-01-27T11:57:53.307Z,85
2018-01-27T11:59:03.436Z,80
2018-01-27T12:00:13.530Z,80
2018-01-27T12:01:23.583Z,80
2018-01-27T12:02:33.390Z,80
2018-01-27T12:03:43.445Z,80
2018-01-27T12:04:53.575Z,80
2018-01-27T12:06:03.138Z,85
2018-01-27T12:07:13.204Z,90
2018-01-27T12:08:24.332Z,95
2018-01-27T12:09:34.409Z,95
2018-01-27T12:10:44.490Z,100
2018-01-27T12:11:54.555Z,100
2018-01-27T12:13:04.611Z,100
2018-01-27T12:14:14.683Z,105
2018-01-27T12:15:24.766Z,105
2018-01-27T12:16:35.198Z,105
2018-01-27T12:17:45.274Z,105
2018-01-27T12:18:55.330Z,100
2018-01-27T12:20:05.444Z,85
2018-01-27T12:21:15.502Z,95
2018-01-27T12:22:25.556Z,110
2018-01-27T12:23:35.618Z,110
2018-01-27T12:24:45.423Z,110
2018-01-27T12:25:56.891Z,110
2018-01-27T12:27:06.966Z,105
2018-01-27T12:28:17.008Z,105
2018-01-27T12:29:26.804Z,105
2018-01-27T12:30:36.867Z,105
2018-01-27T12:31:46.911Z,105
2018-01-27T12:32:56.977Z,100
2018-01-27T12:34:07.056Z,100
2018-01-27T12:35:17.126Z,105
2018-01-27T12:36:27.240Z,110
2018-01-27T12:37:37.347Z,110
2018-01-27T12:38:47.428Z,110
2018-01-27T12:39:57.495Z,115
2018-01-27T12:41:07.587Z,115
2018-01-27T12:42:17.910Z,115
2018-01-27T12:43:28.581Z,115
2018-01-27T12:44:38.657Z,120
2018-01-27T12:45:48.722Z,130
2018-01-27T12:46:58.784Z,120
2018-01-27T12:48:08.587Z,120
2018-01-27T12:49:18.702Z,115
2018-01-27T12:50:28.818Z,115
2018-01-27T12:51:38.915Z,110
2018-01-27T12:52:48.724Z,110
2018-01-27T12:53:58.831Z,105
2018-01-27T12:55:08.673Z,105
2018-01-27T12:56:18.480Z,100
2018-01-27T12:57:30.052Z,100
2018-01-27T12:58:40.128Z,100
2018-01-27T12:59:50.190Z,100
2018-01-27T13:01:00.062Z,95
2018-01-27T13:02:10.147Z,95
2018-01-27T13:03:20.211Z,95
2018-01-27T13:04:30.538Z,95
2018-01-27T13:05:40.811Z,95
2018-01-27T13:06:51.013Z,90
2018-01-27T13:08:01.054Z,85
2018-01-27T13:09:10.873Z,85
2018-01-27T13:10:21.445Z,85
2018-01-27T13:11:31.551Z,85
2018-01-27T13:12:41.842Z,85
2018-01-27T13:13:51.739Z,85
2018-01-27T13:15:01.810Z,80
2018-01-27T13:16:11.901Z,75
2018-01-27T13:17:23.908Z,75
2018-01-27T13:18:33.961Z,75
2018-01-27T13:19:45.023Z,75
2018-01-27T13:20:55.087Z,75
2018-01-27T13:22:05.160Z,70
2018-01-27T13:23:15.634Z,65
2018-01-27T13:24:25.703Z,60
2018-01-27T13:25:35.780Z,55
2018-01-27T13:26:45.870Z,50
2018-01-27T13:27:56.498Z,50
2018-01-27T13:29:06.589Z,45
2018-01-27T13:30:17.566Z,45
2018-01-27T13:31:27.634Z,45
2018-01-27T13:32:39.083Z,45
2018-01-27T13:33:48.898Z,45
2018-01-27T13:34:58.977Z,45
2018-01-27T13:36:09.045Z,45
2018-01-27T13:37:18.875Z,45
2018-01-27T13:38:30.670Z,45
2018-01-27T13:39:41.550Z,45
2018-01-27T13:40:51.646Z,45
2018-01-27T13:42:01.818Z,45
2018-01-27T13:43:11.579Z,45
2018-01-27T13:44:21.296Z,45
2018-01-27T13:45:31.548Z,40
2018-01-27T13:46:42.571Z,45
2018-01-27T13:47:54.131Z,45
2018-01-27T13:49:03.928Z,45
2018-01-27T13:50:13.983Z,45
2018-01-27T13:51:25.794Z,45
2018-01-27T13:52:35.988Z,45
2018-01-27T13:53:46.107Z,45
2018-01-27T13:54:57.264Z,40
2018-01-27T13:56:07.336Z,40
2018-01-27T13:57:17.444Z,40
2018-01-27T13:58:27.288Z,40
2018-01-27T13:59:37.378Z,40
2018-01-27T14:00:47.466Z,40
2018-01-27T14:01:58.157Z,40
2018-01-27T14:03:07.958Z,40
2018-01-27T14:04:18.049Z,35
2018-01-27T14:05:28.166Z,35
2018-01-27T14:06:38.213Z,35
2018-01-27T14:07:48.328Z,35
2018-01-27T14:08:58.129Z,35
2018-01-27T14:10:08.224Z,35
2018-01-27T14:11:18.290Z,35
2018-01-27T14:12:28.414Z,35
2018-01-27T14:13:38.296Z,35
2018-01-27T14:14:48.422Z,35
2018-01-27T14:15:58.520Z,35
2018-01-27T14:17:08.663Z,35
2018-01-27T14:18:18.468Z,35
2018-01-27T14:19:28.529Z,35
2018-01-27T14:20:38.321Z,35
2018-01-27T14:21:48.443Z,30
2018-01-27T14:22:58.560Z,30
2018-01-27T14:24:08.622Z,30
2018-01-27T14:25:18.708Z,30
2018-01-27T14:26:28.774Z,30
2018-01-27T14:27:38.811Z,30
2018-01-27T14:28:48.932Z,25
2018-01-27T14:29:59.009Z,25
2018-01-27T14:31:09.066Z,25
2018-01-27T14:32:19.121Z,25
2018-01-27T14:33:29.188Z,25
2018-01-27T14:34:39.313Z,20
2018-01-27T14:35:48.868Z,20
2018-01-27T14:36:58.956Z,20
2018-01-27T14:38:09.006Z,20
2018-01-27T14:39:18.790Z,20
2018-01-27T14:40:28.932Z,20
2018-01-27T14:41:38.482Z,20
2018-01-27T14:42:48.556Z,20
2018-01-27T14:43:58.361Z,15
2018-01-27T14:45:08.417Z,15
2018-01-27T14:46:18.545Z,15
2018-01-27T14:47:28.365Z,15
2018-01-27T14:48:37.943Z,15
2018-01-27T14:49:48.028Z,15
2018-01-27T14:50:58.114Z,15
2018-01-27T14:52:08.293Z,15
2018-01-27T14:53:18.348Z,15
2018-01-27T14:54:28.418Z,15
2018-01-27T14:55:38.230Z,15
2018-01-27T14:56:48.299Z,15
2018-01-27T14:57:58.470Z,10
2018-01-27T14:59:08.300Z,10
2018-01-27T15:00:18.395Z,10
2018-01-27T15:01:28.455Z,10
2018-01-27T15:02:38.516Z,10
2018-01-27T15:03:48.590Z,10
2018-01-27T15:04:58.713Z,10
2018-01-27T15:06:08.812Z,10
2018-01-27T15:07:18.903Z,10
2018-01-27T15:08:28.994Z,10
2018-01-27T15:09:39.136Z,10
2018-01-27T15:10:49.210Z,10
2018-01-27T15:11:59.343Z,10
2018-01-27T15:13:09.157Z,10
2018-01-27T15:14:19.255Z,5
2018-01-27T15:15:29.069Z,5
2018-01-27T15:16:39.164Z,5
2018-01-27T15:17:49.245Z,5
2018-01-27T15:19:00.576Z,5
2018-01-27T15:20:10.424Z,5
2018-01-27T15:21:20.508Z,5
2018-01-27T15:22:30.651Z,5
2018-01-27T15:23:40.750Z,5
2018-01-27T15:24:50.843Z,5
2018-01-27T15:26:00.968Z,5
2018-01-27T15:27:10.843Z,5
2018-01-27T15:28:20.640Z,5
2018-01-27T15:29:30.493Z,5
2018-01-27T15:30:42.439Z,5
2018-01-27T15:31:52.706Z,5
2018-01-27T15:33:02.849Z,5
2018-01-27T15:34:13.078Z,5
2018-01-27T15:35:23.200Z,5
2018-01-27T15:36:33.280Z,0
2018-01-27T15:37:43.392Z,0
2018-01-27T15:38:53.486Z,0
2018-01-27T15:40:03.337Z,0
2018-01-27T15:41:13.500Z,0
2018-01-27T15:42:23.595Z,0
2018-01-27T15:43:33.699Z,0
2018-01-27T15:44:43.874Z,0
2018-01-27T15:45:53.974Z,0
2018-01-27T15:47:04.043Z,0
2018-01-27T15:48:14.101Z,0
2018-01-27T15:49:24.170Z,0
2018-01-27T15:50:34.294Z,0
2018-01-27T15:51:44.414Z,0
2018-01-27T15:52:54.564Z,0
2018-01-27T15:54:04.624Z,0
2018-01-27T15:55:14.707Z,0
2018-01-27T15:56:24.805Z,0
2018-01-27T15:57:34.612Z,0
2018-01-27T15:58:44.723Z,0
2018-01-27T15:59:54.885Z,0
2018-01-27T16:01:05.038Z,0
2018-01-27T16:02:15.181Z,0
2018-01-27T16:03:25.297Z,0
2018-01-27T16:04:35.374Z,0
2018-01-27T16:05:45.500Z,0
2018-01-27T16:06:55.643Z,0
2018-01-27T16:08:05.749Z,0
2018-01-27T16:09:15.607Z,0
2018-01-27T16:10:25.998Z,0
2018-01-27T16:11:36.076Z,0
2018-01-27T16:12:46.144Z,0
2018-01-27T16:13:56.281Z,0
2018-01-27T16:15:06.401Z,0
2018-01-27T16:16:16.459Z,0
2018-01-27T16:17:26.517Z,0
2018-01-27T16:18:36.580Z,0
2018-01-27T16:19:46.724Z,0
2018-01-27T16:20:56.585Z,0
2018-01-27T16:22:06.743Z,0
2018-01-27T16:23:16.844Z,0
2018-01-27T16:24:26.965Z,0
2018-01-27T16:25:37.178Z,0
2018-01-27T16:26:48.141Z,0
2018-01-27T16:27:58.288Z,0
2018-01-27T16:29:08.160Z,0
2018-01-27T16:30:19.509Z,0
2018-01-27T16:31:29.653Z,0
2018-01-27T16:32:39.775Z,0
2018-01-27T16:33:49.872Z,0
2018-01-27T16:35:00.034Z,0
2018-01-27T16:36:10.208Z,0
2018-01-27T16:37:20.021Z,0
2018-01-27T16:38:30.109Z,0
2018-01-27T16:39:40.185Z,0
2018-01-27T16:40:50.277Z,0
2018-01-27T16:42:00.366Z,0
2018-01-27T16:43:10.449Z,0
2018-01-27T16:44:20.611Z,0
2018-01-27T16:45:30.409Z,0
2018-01-27T16:46:40.494Z,0
2018-01-27T16:47:50.323Z,0
2018-01-27T16:49:00.407Z,0
2018-01-27T16:50:10.491Z,0
2018-01-27T16:51:20.074Z,0
2018-01-27T16:52:30.145Z,0
2018-01-27T16:53:40.220Z,0
2018-01-27T16:54:50.070Z,0
2018-01-27T16:56:00.499Z,0
2018-01-27T16:57:10.586Z,0
2018-01-27T16:58:20.402Z,0
2018-01-27T16:59:29.946Z,0
2018-01-27T17:00:40.032Z,0
2018-01-27T17:01:50.092Z,0
2018-01-27T17:02:59.959Z,0
2018-01-27T17:04:09.805Z,0
2018-01-27T17:05:19.863Z,0
2018-01-27T17:06:29.676Z,0
2018-01-27T17:07:39.772Z,0
2018-01-27T17:08:50.004Z,0
2018-01-27T17:10:00.121Z,0
2018-01-27T17:11:10.218Z,0
2018-01-27T17:12:20.320Z,0
2018-01-27T17:13:30.123Z,0
2018-01-27T17:14:39.952Z,0
2018-01-27T17:15:50.048Z,0
2018-01-27T17:17:00.187Z,0
2018-01-27T17:18:10.025Z,0
2018-01-27T17:19:20.081Z,0
2018-01-27T17:20:30.160Z,0
2018-01-27T17:21:40.019Z,0
2018-01-27T17:22:50.166Z,0
2018-01-27T17:24:00.000Z,0
2018-01-27T17:25:10.152Z,0
2018-01-27T17:26:20.267Z,0
2018-01-27T17:27:29.816Z,0
2018-01-27T17:28:39.881Z,0
2018-01-27T17:29:49.968Z,0
2018-01-27T17:31:00.028Z,0
2018-01-27T17:32:10.111Z,0
2018-01-27T17:33:19.918Z,0
2018-01-27T17:34:29.972Z,0